createdAt,value
2023-04-11T00:03:33.010Z,67.13
2023-04-11T00:08:34.647Z,73.94
2023-04-11T00:13:37.312Z,80.26
2023-04-11T00:18:39.371Z,82.54
2023-04-11T00:23:41.077Z,85.87
2023-04-11T00:28:42.619Z,89.53
2023-04-11T00:33:44.603Z,91.66
2023-04-11T00:38:46.371Z,93.74
2023-04-11T00:43:49.713Z,96.42
2023-04-11T00:48:51.671Z,97.76
2023-04-11T00:53:54.583Z,100.00
2023-04-11T00:58:57.064Z,100.00
2023-04-11T01:04:01.128Z,100.00
2023-04-11T01:09:04.966Z,100.00
2023-04-11T01:14:06.712Z,100.00
2023-04-11T01:19:08.279Z,100.00
2023-04-11T01:24:09.848Z,100.00
2023-04-11T01:29:11.443Z,100.00
2023-04-11T01:34:14.961Z,100.00
2023-04-11T01:39:16.564Z,100.00
2023-04-11T01:44:19.352Z,100.00
2023-04-11T01:49:21.590Z,100.00
2023-04-11T01:54:23.152Z,100.00
2023-04-11T01:59:24.656Z,100.00
2023-04-11T02:04:26.294Z,100.00
2023-04-11T02:09:27.809Z,100.00
2023-04-11T02:14:40.560Z,100.00
2023-04-11T02:19:42.161Z,100.00
2023-04-11T02:24:43.740Z,100.00
2023-04-11T02:29:45.376Z,100.00
2023-04-11T02:34:46.932Z,100.00
2023-04-11T02:39:48.445Z,100.00
2023-04-11T02:44:49.967Z,100.00
2023-04-11T02:49:53.848Z,100.00
2023-04-11T02:55:01.152Z,100.00
2023-04-11T03:00:07.017Z,100.00
2023-04-11T03:05:17.873Z,100.00
2023-04-11T03:10:23.179Z,100.00
2023-04-11T03:15:25.228Z,100.00
2023-04-11T03:20:26.805Z,100.00
2023-04-11T03:25:28.872Z,100.00
2023-04-11T03:30:30.527Z,100.00
2023-04-11T03:35:32.355Z,100.00
2023-04-11T03:40:35.007Z,100.00
2023-04-11T03:45:53.345Z,100.00
2023-04-11T03:51:07.995Z,100.00
2023-04-11T03:56:38.797Z,100.00
2023-04-11T04:01:43.230Z,100.00
2023-04-11T04:06:45.989Z,100.00
2023-04-11T04:11:48.223Z,100.00
2023-04-11T04:16:52.201Z,100.00
2023-04-11T04:21:58.082Z,100.00
2023-04-11T04:27:03.764Z,100.00
2023-04-11T04:32:21.026Z,100.00
2023-04-11T04:37:25.040Z,100.00
2023-04-11T04:42:36.404Z,100.00
2023-04-11T04:47:40.254Z,100.00
2023-04-11T04:52:42.330Z,100.00
2023-04-11T04:57:44.332Z,100.00
2023-04-11T05:02:47.837Z,100.00
2023-04-11T05:07:50.172Z,100.00
2023-04-11T05:12:53.500Z,100.00
2023-04-11T05:17:55.292Z,100.00
2023-04-11T05:22:56.917Z,100.00
2023-04-11T05:27:58.563Z,100.00
2023-04-11T05:33:01.899Z,100.00
2023-04-11T05:38:03.651Z,100.00
2023-04-11T05:43:05.522Z,100.00
2023-04-11T05:48:10.841Z,100.00
2023-04-11T05:53:13.080Z,100.00
2023-04-11T05:58:15.013Z,100.00
2023-04-11T06:03:17.642Z,100.00
2023-04-11T06:08:21.483Z,100.00
2023-04-11T06:13:23.342Z,100.00
2023-04-11T06:18:24.910Z,100.00
2023-04-11T06:23:26.451Z,100.00
2023-04-11T06:28:28.086Z,100.00
2023-04-11T06:33:29.587Z,100.00
2023-04-11T06:38:31.087Z,100.00
2023-04-11T06:43:32.574Z,100.00
2023-04-11T06:48:34.442Z,100.00
2023-04-11T06:53:36.803Z,100.00
2023-04-11T06:58:38.489Z,100.00
2023-04-11T07:03:40.547Z,100.00
2023-04-11T07:08:43.696Z,100.00
2023-04-11T07:13:45.247Z,100.00
2023-04-11T07:18:50.996Z,100.00
2023-04-11T07:23:53.362Z,100.00
2023-04-11T07:28:55.098Z,100.00
2023-04-11T07:33:57.039Z,100.00
2023-04-11T07:38:59.881Z,100.00
2023-04-11T07:44:01.545Z,100.00
2023-04-11T07:49:03.204Z,100.00
2023-04-11T07:54:04.776Z,98.10
2023-04-11T07:59:06.496Z,97.81
2023-04-11T08:04:08.189Z,94.85
2023-04-11T08:09:10.919Z,93.83
2023-04-11T08:14:14.786Z,92.20
2023-04-11T08:19:17.120Z,89.03
2023-04-11T08:24:18.916Z,86.02
2023-04-11T08:29:20.457Z,84.54
2023-04-11T08:34:22.022Z,86.31
2023-04-11T08:39:23.536Z,86.24
2023-04-11T08:44:25.199Z,85.66
2023-04-11T08:49:26.685Z,85.50
2023-04-11T08:54:28.178Z,82.59
2023-04-11T08:59:33.928Z,82.78
2023-04-11T09:04:43.058Z,84.01
2023-04-11T09:09:45.426Z,83.60
2023-04-11T09:14:46.959Z,81.35
2023-04-11T09:19:49.514Z,81.71
2023-04-11T09:25:02.639Z,78.17
2023-04-11T09:30:05.878Z,77.40
2023-04-11T09:35:11.349Z,74.81
2023-04-11T09:40:14.925Z,74.45
2023-04-11T09:45:21.121Z,72.49
2023-04-11T09:50:23.962Z,69.86
2023-04-11T09:55:26.136Z,71.24
2023-04-11T10:00:32.474Z,69.72
2023-04-11T10:05:34.159Z,69.58
2023-04-11T10:10:36.097Z,69.24
2023-04-11T10:15:37.725Z,66.61
2023-04-11T10:20:48.176Z,63.90
2023-04-11T10:25:55.444Z,62.56
2023-04-11T10:31:13.032Z,62.46
2023-04-11T10:36:14.667Z,60.72
2023-04-11T10:41:28.605Z,60.42
2023-04-11T10:46:30.301Z,60.26
2023-04-11T10:51:33.807Z,59.71
2023-04-11T10:56:45.494Z,57.08
2023-04-11T11:01:54.877Z,59.13
2023-04-11T11:06:57.915Z,59.55
2023-04-11T11:12:05.605Z,59.30
2023-04-11T11:17:07.949Z,60.19
2023-04-11T11:22:25.583Z,60.24
2023-04-11T11:27:33.107Z,59.37
2023-04-11T11:32:38.997Z,57.36
2023-04-11T11:37:40.807Z,56.40
2023-04-11T11:42:42.457Z,55.57
2023-04-11T11:47:45.694Z,56.37
2023-04-11T11:52:48.777Z,57.63
2023-04-11T11:57:50.851Z,56.06
2023-04-11T12:02:54.205Z,54.76
2023-04-11T12:07:58.588Z,54.27
2023-04-11T12:13:00.290Z,54.98
2023-04-11T12:18:05.621Z,54.12
2023-04-11T12:23:07.202Z,54.42
2023-04-11T12:28:09.814Z,53.44
2023-04-11T12:33:14.954Z,52.18
2023-04-11T12:38:17.956Z,52.83
2023-04-11T12:43:19.906Z,52.78
2023-04-11T12:48:21.519Z,52.81
2023-04-11T12:53:23.495Z,51.42
2023-04-11T12:58:26.396Z,51.74
2023-04-11T13:03:29.161Z,51.68
2023-04-11T13:08:30.997Z,50.33
2023-04-11T13:20:44.887Z,50.65
2023-04-11T13:25:46.356Z,50.91
2023-04-11T13:30:47.857Z,51.85
2023-04-11T13:35:53.149Z,51.71
2023-04-11T13:40:55.544Z,51.71
2023-04-11T13:46:05.198Z,50.51
2023-04-11T13:51:07.098Z,49.89
2023-04-11T13:56:08.755Z,50.45
2023-04-11T14:01:10.726Z,51.79
2023-04-11T14:06:12.457Z,50.21
2023-04-11T14:11:14.453Z,49.83
2023-04-11T14:16:16.446Z,50.61
2023-04-11T14:22:20.195Z,49.99
2023-04-11T14:27:21.898Z,50.17
2023-04-11T14:32:23.419Z,50.19
2023-04-11T14:37:24.899Z,49.45
2023-04-11T14:42:26.588Z,50.09
2023-04-11T14:47:28.682Z,50.86
2023-04-11T14:52:30.249Z,49.83
2023-04-11T14:57:46.975Z,50.43
2023-04-11T15:02:53.779Z,49.82
2023-04-11T15:07:55.647Z,49.22
2023-04-11T15:12:57.132Z,49.13
2023-04-11T15:18:18.430Z,49.19
2023-04-11T15:23:20.702Z,48.68
2023-04-11T15:28:23.568Z,48.81
2023-04-11T15:33:25.943Z,48.93
2023-04-11T15:38:28.610Z,48.81
2023-04-11T15:43:32.048Z,48.65
2023-04-11T15:48:33.512Z,47.92
2023-04-11T15:53:35.238Z,48.41
2023-04-11T15:58:36.754Z,48.25
2023-04-11T16:03:38.395Z,48.64
2023-04-11T16:08:40.063Z,49.16
2023-04-11T16:13:44.003Z,48.68
2023-04-11T16:18:45.603Z,48.54
2023-04-11T16:23:47.114Z,49.21
2023-04-11T16:28:48.980Z,48.96
2023-04-11T16:33:52.230Z,49.13
2023-04-11T16:38:53.773Z,49.29
2023-04-11T16:43:55.982Z,49.46
2023-04-11T16:48:59.310Z,48.75
2023-04-11T16:54:02.256Z,49.31
2023-04-11T16:59:05.104Z,50.19
2023-04-11T17:04:06.989Z,50.25
2023-04-11T17:09:08.911Z,50.61
2023-04-11T17:14:10.439Z,50.93
2023-04-11T17:19:12.097Z,51.15
2023-04-11T17:24:13.603Z,51.38
2023-04-11T17:29:15.555Z,51.93
2023-04-11T17:34:17.004Z,51.98
2023-04-11T17:39:18.666Z,52.38
2023-04-11T17:44:20.730Z,52.94
2023-04-11T17:49:22.214Z,53.75
2023-04-11T17:54:23.770Z,54.13
2023-04-11T17:59:25.361Z,54.23
2023-04-11T18:04:26.968Z,54.57
2023-04-11T18:09:31.786Z,55.15
2023-04-11T18:14:34.160Z,55.31
2023-04-11T18:19:36.151Z,55.37
2023-04-11T18:24:38.093Z,56.72
2023-04-11T18:29:39.559Z,56.65
2023-04-11T18:34:41.137Z,57.01
2023-04-11T18:39:42.646Z,57.96
2023-04-11T18:44:44.199Z,58.12
2023-04-11T18:49:45.850Z,58.82
2023-04-11T18:54:47.318Z,59.36
2023-04-11T18:59:50.532Z,60.58
2023-04-11T19:04:55.440Z,61.29
2023-04-11T19:09:57.198Z,62.07
2023-04-11T19:14:58.798Z,61.96
2023-04-11T19:20:02.112Z,63.49
2023-04-11T19:25:03.789Z,63.87
2023-04-11T19:30:06.412Z,63.99
2023-04-11T19:35:10.457Z,64.71
2023-04-11T19:40:15.177Z,64.95
2023-04-11T19:45:16.745Z,65.32
2023-04-11T19:50:18.506Z,66.49
2023-04-11T19:55:20.069Z,66.37
2023-04-11T20:00:21.552Z,67.77
2023-04-11T20:05:23.798Z,68.62
2023-04-11T20:10:28.387Z,68.67
2023-04-11T20:15:30.939Z,69.35
2023-04-11T20:20:33.669Z,70.75
2023-04-11T20:25:35.493Z,70.92
2023-04-11T20:30:40.122Z,70.48
2023-04-11T20:35:41.605Z,69.61
2023-04-11T20:40:43.152Z,69.18
2023-04-11T20:45:47.682Z,69.69
2023-04-11T20:50:49.280Z,70.75
2023-04-11T20:55:50.846Z,71.19
2023-04-11T21:00:53.545Z,71.49
2023-04-11T21:05:55.069Z,71.31
2023-04-11T21:10:56.521Z,71.78
2023-04-11T21:15:58.493Z,72.40
2023-04-11T21:21:00.074Z,72.55
2023-04-11T21:26:01.578Z,72.51
2023-04-11T21:31:03.125Z,71.30
2023-04-11T21:36:05.034Z,70.42
2023-04-11T21:41:06.967Z,69.89
2023-04-11T21:46:08.504Z,70.03
2023-04-11T21:51:10.439Z,68.82
2023-04-11T21:56:11.962Z,69.14
2023-04-11T22:01:15.067Z,68.39
2023-04-11T22:06:19.336Z,67.78
2023-04-11T22:11:20.799Z,68.40
2023-04-11T22:16:26.316Z,67.39
2023-04-11T22:21:28.411Z,67.68
2023-04-11T22:26:33.971Z,67.35
2023-04-11T22:31:38.273Z,66.35
2023-04-11T22:36:40.089Z,67.03
2023-04-11T22:41:41.580Z,67.19
2023-04-11T22:46:57.145Z,66.18
2023-04-11T22:52:02.127Z,65.95
2023-04-11T22:57:03.668Z,66.18
2023-04-11T23:02:05.653Z,66.94
2023-04-11T23:07:07.168Z,66.23
2023-04-11T23:12:08.967Z,67.96
2023-04-11T23:17:10.516Z,68.51
2023-04-11T23:22:12.428Z,67.43
2023-04-11T23:27:14.056Z,67.13
2023-04-11T23:32:15.641Z,68.12
2023-04-11T23:37:17.845Z,68.22
2023-04-11T23:42:19.286Z,68.62
2023-04-11T23:47:20.861Z,69.87
2023-04-11T23:52:22.421Z,70.90
2023-04-11T23:57:24.787Z,71.49
